sensor_id;sensor_type;location;lat;lon;timestamp;P1;durP1;ratioP1;P2;durP2;ratioP2
55220;SDS011;41089;51.448;6.604;2023-05-07T00:04:25;9.13;;;6.60;;
55220;SDS011;41089;51.448;6.604;2023-05-07T00:10:26;6.55;;;5.93;;
55220;SDS011;41089;51.448;6.604;2023-05-07T00:16:27;9.70;;;7.05;;
55220;SDS011;41089;51.448;6.604;2023-05-07T00:22:27;8.07;;;6.97;;
55220;SDS011;41089;51.448;6.604;2023-05-07T00:28:30;10.50;;;8.18;;
55220;SDS011;41089;51.448;6.604;2023-05-07T00:34:30;9.88;;;7.03;;
55220;SDS011;41089;51.448;6.604;2023-05-07T00:40:32;13.70;;;8.88;;
55220;SDS011;41089;51.448;6.604;2023-05-07T00:46:32;8.60;;;7.68;;
55220;SDS011;41089;51.448;6.604;2023-05-07T00:52:33;11.23;;;7.47;;
55220;SDS011;41089;51.448;6.604;2023-05-07T00:58:34;9.35;;;8.32;;
55220;SDS011;41089;51.448;6.604;2023-05-07T01:04:35;9.57;;;8.32;;
55220;SDS011;41089;51.448;6.604;2023-05-07T01:10:35;9.77;;;7.80;;
55220;SDS011;41089;51.448;6.604;2023-05-07T01:16:36;15.10;;;8.93;;
55220;SDS011;41089;51.448;6.604;2023-05-07T01:22:37;9.85;;;8.13;;
55220;SDS011;41089;51.448;6.604;2023-05-07T01:28:38;17.90;;;8.82;;
55220;SDS011;41089;51.448;6.604;2023-05-07T01:34:39;9.90;;;8.60;;
55220;SDS011;41089;51.448;6.604;2023-05-07T01:40:40;13.20;;;8.73;;
55220;SDS011;41089;51.448;6.604;2023-05-07T01:46:41;9.90;;;8.60;;
55220;SDS011;41089;51.448;6.604;2023-05-07T01:52:44;11.60;;;9.50;;
55220;SDS011;41089;51.448;6.604;2023-05-07T01:58:45;11.85;;;9.75;;
55220;SDS011;41089;51.448;6.604;2023-05-07T02:04:46;11.20;;;9.48;;
55220;SDS011;41089;51.448;6.604;2023-05-07T02:10:46;9.77;;;8.77;;
55220;SDS011;41089;51.448;6.604;2023-05-07T02:16:47;9.15;;;8.25;;
55220;SDS011;41089;51.448;6.604;2023-05-07T02:22:47;11.77;;;9.50;;
55220;SDS011;41089;51.448;6.604;2023-05-07T02:28:48;9.67;;;8.60;;
55220;SDS011;41089;51.448;6.604;2023-05-07T02:34:50;9.93;;;8.70;;
55220;SDS011;41089;51.448;6.604;2023-05-07T02:40:51;14.57;;;9.95;;
55220;SDS011;41089;51.448;6.604;2023-05-07T02:46:51;11.32;;;9.93;;
55220;SDS011;41089;51.448;6.604;2023-05-07T02:52:51;13.07;;;11.10;;
55220;SDS011;41089;51.448;6.604;2023-05-07T02:58:52;10.30;;;8.10;;
55220;SDS011;41089;51.448;6.604;2023-05-07T03:04:52;11.32;;;9.70;;
55220;SDS011;41089;51.448;6.604;2023-05-07T03:10:53;10.80;;;9.27;;
55220;SDS011;41089;51.448;6.604;2023-05-07T03:16:53;12.52;;;11.30;;
55220;SDS011;41089;51.448;6.604;2023-05-07T03:22:54;14.57;;;11.43;;
55220;SDS011;41089;51.448;6.604;2023-05-07T03:28:54;11.57;;;10.37;;
55220;SDS011;41089;51.448;6.604;2023-05-07T03:34:55;13.45;;;11.25;;
55220;SDS011;41089;51.448;6.604;2023-05-07T03:40:57;11.48;;;9.50;;
55220;SDS011;41089;51.448;6.604;2023-05-07T03:46:57;11.25;;;10.15;;
55220;SDS011;41089;51.448;6.604;2023-05-07T03:52:59;14.07;;;10.85;;
55220;SDS011;41089;51.448;6.604;2023-05-07T03:59:00;13.82;;;11.48;;
55220;SDS011;41089;51.448;6.604;2023-05-07T04:05:00;11.98;;;10.75;;
55220;SDS011;41089;51.448;6.604;2023-05-07T04:11:01;15.80;;;12.43;;
55220;SDS011;41089;51.448;6.604;2023-05-07T04:17:01;14.87;;;11.50;;
55220;SDS011;41089;51.448;6.604;2023-05-07T04:23:02;15.73;;;12.65;;
55220;SDS011;41089;51.448;6.604;2023-05-07T04:29:03;14.95;;;13.40;;
55220;SDS011;41089;51.448;6.604;2023-05-07T04:35:04;12.80;;;11.57;;
55220;SDS011;41089;51.448;6.604;2023-05-07T04:41:05;14.52;;;12.27;;
55220;SDS011;41089;51.448;6.604;2023-05-07T04:47:06;15.90;;;11.85;;
55220;SDS011;41089;51.448;6.604;2023-05-07T04:53:06;15.07;;;10.97;;
55220;SDS011;41089;51.448;6.604;2023-05-07T04:59:06;13.13;;;11.60;;
55220;SDS011;41089;51.448;6.604;2023-05-07T05:05:08;13.83;;;11.13;;
55220;SDS011;41089;51.448;6.604;2023-05-07T05:11:09;14.88;;;11.75;;
55220;SDS011;41089;51.448;6.604;2023-05-07T05:17:09;10.82;;;9.23;;
55220;SDS011;41089;51.448;6.604;2023-05-07T05:23:10;12.07;;;10.65;;
55220;SDS011;41089;51.448;6.604;2023-05-07T05:29:10;11.17;;;10.07;;
55220;SDS011;41089;51.448;6.604;2023-05-07T05:35:11;12.80;;;9.30;;
55220;SDS011;41089;51.448;6.604;2023-05-07T05:41:11;14.73;;;8.80;;
55220;SDS011;41089;51.448;6.604;2023-05-07T05:47:12;10.00;;;8.10;;
55220;SDS011;41089;51.448;6.604;2023-05-07T05:53:12;8.20;;;7.40;;
55220;SDS011;41089;51.448;6.604;2023-05-07T05:59:13;8.27;;;7.10;;
55220;SDS011;41089;51.448;6.604;2023-05-07T06:05:13;11.07;;;8.18;;
55220;SDS011;41089;51.448;6.604;2023-05-07T06:11:14;8.88;;;8.00;;
55220;SDS011;41089;51.448;6.604;2023-05-07T06:17:15;9.57;;;7.70;;
55220;SDS011;41089;51.448;6.604;2023-05-07T06:23:16;9.48;;;7.47;;
55220;SDS011;41089;51.448;6.604;2023-05-07T06:29:17;9.48;;;7.90;;
55220;SDS011;41089;51.448;6.604;2023-05-07T06:35:17;12.33;;;7.57;;
55220;SDS011;41089;51.448;6.604;2023-05-07T06:41:18;10.18;;;8.10;;
55220;SDS011;41089;51.448;6.604;2023-05-07T06:47:18;8.82;;;7.93;;
55220;SDS011;41089;51.448;6.604;2023-05-07T06:53:18;12.77;;;7.70;;
55220;SDS011;41089;51.448;6.604;2023-05-07T06:59:19;11.87;;;9.20;;
55220;SDS011;41089;51.448;6.604;2023-05-07T07:05:19;10.05;;;7.70;;
55220;SDS011;41089;51.448;6.604;2023-05-07T07:11:20;7.32;;;6.25;;
55220;SDS011;41089;51.448;6.604;2023-05-07T07:17:20;10.97;;;6.03;;
55220;SDS011;41089;51.448;6.604;2023-05-07T07:23:21;8.60;;;6.63;;
55220;SDS011;41089;51.448;6.604;2023-05-07T07:29:22;6.80;;;5.43;;
55220;SDS011;41089;51.448;6.604;2023-05-07T07:35:22;6.13;;;4.40;;
55220;SDS011;41089;51.448;6.604;2023-05-07T07:41:23;6.85;;;4.47;;
55220;SDS011;41089;51.448;6.604;2023-05-07T07:47:23;5.50;;;4.00;;
55220;SDS011;41089;51.448;6.604;2023-05-07T07:53:24;6.22;;;3.90;;
55220;SDS011;41089;51.448;6.604;2023-05-07T07:59:24;4.75;;;3.45;;
55220;SDS011;41089;51.448;6.604;2023-05-07T08:05:28;4.75;;;4.25;;
55220;SDS011;41089;51.448;6.604;2023-05-07T08:11:29;4.90;;;4.15;;
55220;SDS011;41089;51.448;6.604;2023-05-07T08:17:30;7.95;;;4.97;;
55220;SDS011;41089;51.448;6.604;2023-05-07T08:23:30;9.70;;;4.13;;
55220;SDS011;41089;51.448;6.604;2023-05-07T08:29:31;6.53;;;4.65;;
55220;SDS011;41089;51.448;6.604;2023-05-07T08:35:32;10.00;;;5.63;;
55220;SDS011;41089;51.448;6.604;2023-05-07T08:41:33;11.05;;;5.40;;
55220;SDS011;41089;51.448;6.604;2023-05-07T08:47:39;6.22;;;4.32;;
55220;SDS011;41089;51.448;6.604;2023-05-07T08:53:44;8.82;;;4.40;;
55220;SDS011;41089;51.448;6.604;2023-05-07T08:59:45;7.53;;;5.13;;
55220;SDS011;41089;51.448;6.604;2023-05-07T09:05:48;8.20;;;4.38;;
55220;SDS011;41089;51.448;6.604;2023-05-07T09:11:48;10.18;;;4.80;;
55220;SDS011;41089;51.448;6.604;2023-05-07T09:18:00;4.38;;;3.90;;
55220;SDS011;41089;51.448;6.604;2023-05-07T09:24:03;5.43;;;3.25;;
55220;SDS011;41089;51.448;6.604;2023-05-07T09:30:05;4.25;;;3.20;;
55220;SDS011;41089;51.448;6.604;2023-05-07T09:36:09;13.82;;;4.78;;
55220;SDS011;41089;51.448;6.604;2023-05-07T09:42:10;6.68;;;3.60;;
55220;SDS011;41089;51.448;6.604;2023-05-07T09:48:11;3.65;;;2.80;;
55220;SDS011;41089;51.448;6.604;2023-05-07T09:54:15;4.32;;;3.00;;
55220;SDS011;41089;51.448;6.604;2023-05-07T10:00:17;2.92;;;2.35;;
55220;SDS011;41089;51.448;6.604;2023-05-07T10:06:23;5.25;;;2.58;;
55220;SDS011;41089;51.448;6.604;2023-05-07T10:18:38;2.75;;;2.20;;
55220;SDS011;41089;51.448;6.604;2023-05-07T10:24:40;3.95;;;1.88;;
55220;SDS011;41089;51.448;6.604;2023-05-07T10:30:48;3.63;;;2.30;;
55220;SDS011;41089;51.448;6.604;2023-05-07T10:37:06;4.05;;;2.35;;
55220;SDS011;41089;51.448;6.604;2023-05-07T10:43:08;3.58;;;2.05;;
55220;SDS011;41089;51.448;6.604;2023-05-07T10:49:10;4.03;;;3.08;;
55220;SDS011;41089;51.448;6.604;2023-05-07T11:01:48;4.50;;;2.33;;
55220;SDS011;41089;51.448;6.604;2023-05-07T11:07:58;3.30;;;2.45;;
55220;SDS011;41089;51.448;6.604;2023-05-07T11:14:00;2.83;;;2.50;;
55220;SDS011;41089;51.448;6.604;2023-05-07T11:20:01;2.60;;;2.10;;
55220;SDS011;41089;51.448;6.604;2023-05-07T11:26:03;3.88;;;2.30;;
55220;SDS011;41089;51.448;6.604;2023-05-07T11:32:03;4.78;;;2.67;;
55220;SDS011;41089;51.448;6.604;2023-05-07T11:38:05;5.72;;;2.75;;
55220;SDS011;41089;51.448;6.604;2023-05-07T11:44:07;4.32;;;2.92;;
55220;SDS011;41089;51.448;6.604;2023-05-07T11:50:08;4.18;;;2.90;;
55220;SDS011;41089;51.448;6.604;2023-05-07T11:56:12;4.72;;;2.25;;
55220;SDS011;41089;51.448;6.604;2023-05-07T12:02:14;3.90;;;2.28;;
55220;SDS011;41089;51.448;6.604;2023-05-07T12:08:15;4.30;;;2.60;;
55220;SDS011;41089;51.448;6.604;2023-05-07T12:14:17;3.67;;;2.45;;
55220;SDS011;41089;51.448;6.604;2023-05-07T12:20:17;4.13;;;2.70;;
55220;SDS011;41089;51.448;6.604;2023-05-07T12:26:19;3.80;;;2.55;;
55220;SDS011;41089;51.448;6.604;2023-05-07T12:32:21;3.88;;;2.40;;
55220;SDS011;41089;51.448;6.604;2023-05-07T12:38:22;7.50;;;2.90;;
55220;SDS011;41089;51.448;6.604;2023-05-07T12:44:23;3.80;;;2.85;;
55220;SDS011;41089;51.448;6.604;2023-05-07T12:50:26;5.70;;;3.33;;
55220;SDS011;41089;51.448;6.604;2023-05-07T12:56:31;5.10;;;2.58;;
55220;SDS011;41089;51.448;6.604;2023-05-07T13:02:32;5.38;;;3.20;;
55220;SDS011;41089;51.448;6.604;2023-05-07T13:08:35;3.90;;;2.80;;
55220;SDS011;41089;51.448;6.604;2023-05-07T13:14:37;4.35;;;2.38;;
55220;SDS011;41089;51.448;6.604;2023-05-07T13:20:38;4.13;;;2.45;;
55220;SDS011;41089;51.448;6.604;2023-05-07T13:26:38;3.07;;;2.03;;
55220;SDS011;41089;51.448;6.604;2023-05-07T13:32:39;4.23;;;2.67;;
55220;SDS011;41089;51.448;6.604;2023-05-07T13:38:40;5.40;;;2.20;;
55220;SDS011;41089;51.448;6.604;2023-05-07T13:44:41;4.25;;;2.47;;
55220;SDS011;41089;51.448;6.604;2023-05-07T13:50:43;4.45;;;2.75;;
55220;SDS011;41089;51.448;6.604;2023-05-07T13:56:44;3.88;;;2.58;;
55220;SDS011;41089;51.448;6.604;2023-05-07T14:02:45;4.28;;;2.67;;
55220;SDS011;41089;51.448;6.604;2023-05-07T14:08:45;3.05;;;2.72;;
55220;SDS011;41089;51.448;6.604;2023-05-07T14:14:46;4.60;;;2.90;;
55220;SDS011;41089;51.448;6.604;2023-05-07T14:20:46;5.03;;;2.75;;
55220;SDS011;41089;51.448;6.604;2023-05-07T14:26:48;3.85;;;2.58;;
55220;SDS011;41089;51.448;6.604;2023-05-07T14:32:50;4.43;;;2.88;;
55220;SDS011;41089;51.448;6.604;2023-05-07T14:38:51;7.25;;;3.70;;
55220;SDS011;41089;51.448;6.604;2023-05-07T14:44:53;3.17;;;2.88;;
55220;SDS011;41089;51.448;6.604;2023-05-07T14:50:54;4.88;;;3.13;;
55220;SDS011;41089;51.448;6.604;2023-05-07T14:57:04;5.63;;;4.43;;
55220;SDS011;41089;51.448;6.604;2023-05-07T15:03:06;4.80;;;4.22;;
55220;SDS011;41089;51.448;6.604;2023-05-07T15:09:07;5.22;;;4.07;;
55220;SDS011;41089;51.448;6.604;2023-05-07T15:15:09;5.45;;;3.90;;
55220;SDS011;41089;51.448;6.604;2023-05-07T15:21:11;5.93;;;3.72;;
55220;SDS011;41089;51.448;6.604;2023-05-07T15:27:12;4.68;;;3.30;;
55220;SDS011;41089;51.448;6.604;2023-05-07T15:33:12;5.53;;;3.83;;
55220;SDS011;41089;51.448;6.604;2023-05-07T15:39:13;5.95;;;3.95;;
55220;SDS011;41089;51.448;6.604;2023-05-07T15:45:14;3.92;;;3.38;;
55220;SDS011;41089;51.448;6.604;2023-05-07T15:51:15;4.97;;;3.33;;
55220;SDS011;41089;51.448;6.604;2023-05-07T15:57:16;4.22;;;3.83;;
55220;SDS011;41089;51.448;6.604;2023-05-07T16:03:17;5.45;;;4.72;;
55220;SDS011;41089;51.448;6.604;2023-05-07T16:09:18;5.25;;;4.75;;
55220;SDS011;41089;51.448;6.604;2023-05-07T16:15:18;7.35;;;5.57;;
55220;SDS011;41089;51.448;6.604;2023-05-07T16:21:19;6.23;;;5.60;;
55220;SDS011;41089;51.448;6.604;2023-05-07T16:27:19;6.10;;;5.07;;
55220;SDS011;41089;51.448;6.604;2023-05-07T16:33:21;5.68;;;5.15;;
55220;SDS011;41089;51.448;6.604;2023-05-07T16:39:22;6.18;;;5.50;;
55220;SDS011;41089;51.448;6.604;2023-05-07T16:45:23;8.52;;;5.32;;
55220;SDS011;41089;51.448;6.604;2023-05-07T16:51:23;7.03;;;6.32;;
55220;SDS011;41089;51.448;6.604;2023-05-07T16:57:24;6.75;;;6.07;;
55220;SDS011;41089;51.448;6.604;2023-05-07T17:03:24;5.60;;;4.95;;
55220;SDS011;41089;51.448;6.604;2023-05-07T17:09:26;7.63;;;5.15;;
55220;SDS011;41089;51.448;6.604;2023-05-07T17:15:26;6.23;;;4.07;;
55220;SDS011;41089;51.448;6.604;2023-05-07T17:21:27;7.03;;;5.00;;
55220;SDS011;41089;51.448;6.604;2023-05-07T17:27:27;7.85;;;5.25;;
55220;SDS011;41089;51.448;6.604;2023-05-07T17:33:28;7.50;;;4.90;;
55220;SDS011;41089;51.448;6.604;2023-05-07T17:39:28;5.80;;;4.80;;
55220;SDS011;41089;51.448;6.604;2023-05-07T17:45:30;6.63;;;5.00;;
55220;SDS011;41089;51.448;6.604;2023-05-07T17:51:31;7.93;;;5.63;;
55220;SDS011;41089;51.448;6.604;2023-05-07T17:57:33;7.17;;;5.50;;
55220;SDS011;41089;51.448;6.604;2023-05-07T18:03:37;6.60;;;4.75;;
55220;SDS011;41089;51.448;6.604;2023-05-07T18:09:37;5.25;;;4.53;;
55220;SDS011;41089;51.448;6.604;2023-05-07T18:15:38;4.25;;;3.85;;
55220;SDS011;41089;51.448;6.604;2023-05-07T18:21:39;4.65;;;3.40;;
55220;SDS011;41089;51.448;6.604;2023-05-07T18:27:40;5.10;;;3.38;;
55220;SDS011;41089;51.448;6.604;2023-05-07T18:33:41;4.40;;;3.88;;
55220;SDS011;41089;51.448;6.604;2023-05-07T18:39:42;5.32;;;3.33;;
55220;SDS011;41089;51.448;6.604;2023-05-07T18:45:43;9.73;;;3.78;;
55220;SDS011;41089;51.448;6.604;2023-05-07T18:51:47;4.18;;;3.40;;
55220;SDS011;41089;51.448;6.604;2023-05-07T18:57:48;4.00;;;3.55;;
55220;SDS011;41089;51.448;6.604;2023-05-07T19:03:49;4.27;;;3.87;;
55220;SDS011;41089;51.448;6.604;2023-05-07T19:09:49;5.10;;;3.80;;
55220;SDS011;41089;51.448;6.604;2023-05-07T19:15:50;5.80;;;4.20;;
55220;SDS011;41089;51.448;6.604;2023-05-07T19:21:51;4.57;;;4.18;;
55220;SDS011;41089;51.448;6.604;2023-05-07T19:27:52;5.10;;;4.38;;
55220;SDS011;41089;51.448;6.604;2023-05-07T19:33:52;5.70;;;4.63;;
55220;SDS011;41089;51.448;6.604;2023-05-07T19:39:53;5.38;;;4.90;;
55220;SDS011;41089;51.448;6.604;2023-05-07T19:45:53;4.80;;;4.27;;
55220;SDS011;41089;51.448;6.604;2023-05-07T19:51:54;8.43;;;5.67;;
55220;SDS011;41089;51.448;6.604;2023-05-07T19:57:54;7.20;;;5.23;;
55220;SDS011;41089;51.448;6.604;2023-05-07T20:03:55;5.67;;;4.27;;
55220;SDS011;41089;51.448;6.604;2023-05-07T20:09:55;6.20;;;4.60;;
55220;SDS011;41089;51.448;6.604;2023-05-07T20:15:56;7.30;;;4.55;;
55220;SDS011;41089;51.448;6.604;2023-05-07T20:22:00;8.55;;;5.32;;
55220;SDS011;41089;51.448;6.604;2023-05-07T20:28:00;6.97;;;4.67;;
55220;SDS011;41089;51.448;6.604;2023-05-07T20:34:02;4.87;;;4.47;;
55220;SDS011;41089;51.448;6.604;2023-05-07T20:40:04;9.85;;;5.05;;
55220;SDS011;41089;51.448;6.604;2023-05-07T20:46:06;5.55;;;4.90;;
55220;SDS011;41089;51.448;6.604;2023-05-07T20:52:06;6.28;;;5.70;;
55220;SDS011;41089;51.448;6.604;2023-05-07T20:58:07;6.53;;;5.73;;
55220;SDS011;41089;51.448;6.604;2023-05-07T21:04:07;7.22;;;6.45;;
55220;SDS011;41089;51.448;6.604;2023-05-07T21:10:08;8.90;;;6.13;;
55220;SDS011;41089;51.448;6.604;2023-05-07T21:16:08;9.65;;;7.15;;
55220;SDS011;41089;51.448;6.604;2023-05-07T21:22:09;7.78;;;6.03;;
55220;SDS011;41089;51.448;6.604;2023-05-07T21:28:10;9.73;;;7.43;;
55220;SDS011;41089;51.448;6.604;2023-05-07T21:34:11;7.63;;;6.93;;
55220;SDS011;41089;51.448;6.604;2023-05-07T21:40:12;9.43;;;7.10;;
55220;SDS011;41089;51.448;6.604;2023-05-07T21:46:12;9.93;;;7.75;;
55220;SDS011;41089;51.448;6.604;2023-05-07T21:52:13;8.45;;;7.65;;
55220;SDS011;41089;51.448;6.604;2023-05-07T21:58:14;10.25;;;9.20;;
55220;SDS011;41089;51.448;6.604;2023-05-07T22:04:15;9.60;;;7.37;;
55220;SDS011;41089;51.448;6.604;2023-05-07T22:10:15;11.03;;;9.93;;
55220;SDS011;41089;51.448;6.604;2023-05-07T22:16:20;10.32;;;9.32;;
55220;SDS011;41089;51.448;6.604;2023-05-07T22:22:21;9.30;;;8.50;;
55220;SDS011;41089;51.448;6.604;2023-05-07T22:28:21;8.97;;;8.07;;
55220;SDS011;41089;51.448;6.604;2023-05-07T22:34:22;9.50;;;8.43;;
55220;SDS011;41089;51.448;6.604;2023-05-07T22:40:22;9.20;;;7.30;;
55220;SDS011;41089;51.448;6.604;2023-05-07T22:46:23;9.68;;;8.68;;
55220;SDS011;41089;51.448;6.604;2023-05-07T22:52:23;9.35;;;8.00;;
55220;SDS011;41089;51.448;6.604;2023-05-07T22:58:24;9.07;;;7.90;;
55220;SDS011;41089;51.448;6.604;2023-05-07T23:04:25;11.23;;;7.47;;
55220;SDS011;41089;51.448;6.604;2023-05-07T23:10:25;9.98;;;8.55;;
55220;SDS011;41089;51.448;6.604;2023-05-07T23:16:26;9.90;;;8.82;;
55220;SDS011;41089;51.448;6.604;2023-05-07T23:22:27;8.70;;;7.75;;
55220;SDS011;41089;51.448;6.604;2023-05-07T23:28:28;9.70;;;8.77;;
55220;SDS011;41089;51.448;6.604;2023-05-07T23:34:29;9.93;;;8.93;;
55220;SDS011;41089;51.448;6.604;2023-05-07T23:40:30;9.63;;;8.57;;
55220;SDS011;41089;51.448;6.604;2023-05-07T23:46:30;10.48;;;8.15;;
55220;SDS011;41089;51.448;6.604;2023-05-07T23:52:31;10.65;;;9.63;;
55220;SDS011;41089;51.448;6.604;2023-05-07T23:58:31;10.20;;;8.77;;
